»·PEaware :: UAL1520 KSFO-KSAN

UAL1520 :: KSFO-KSAN

FLIGHT INFORMATION

Flight Status: Arrived
Operator:
United Airlines
More flights by this operator :: More flights under this callsign
Pilot: Henderson P. (1210)
Aircraft: AIRBUS A320
(A320)
More flights by this aircraft type
Origin: KSFO San Francisco Intl
United States
Destination: KSAN San Diego Intl-Lindbergh
United States
More flights between these airports :: More routes between these airports
Route: +SSTIK4 CISKO FLW LAX COMIX2
File this flight plan on PilotEdge
Remarks:
Altitude:
(Current/Filed)
35,000ft
Speed:
(Current/Filed)
463kts
Departed: 12-Oct-18 10:41 AM
Arrived: 12-Oct-18 11:51 AM
Distance/Time
Traveled:
387nm/1:09
Distance/Time
To Go:
Arrived

Flight Plot

Page will automatically refresh every two minutes.

Flight plan parsing failed; only flown route is shown


Map Options




Map Legend


Flown Route
Filed Route
Departure Airport
Arrival Airport
Navaid (VOR, NDB)
Fix

Horizontal Profiles

Position Reports

Time Latitude Longitude Heading Altitude Ground
Speed
12-Oct-18 09:37 37.617946 -122.388436 140 27ft 0kts
12-Oct-18 09:38 37.617946 -122.388436 140 27ft 0kts
12-Oct-18 09:39 37.617946 -122.388436 140 27ft 0kts
12-Oct-18 09:40 37.617946 -122.388436 140 27ft 0kts
12-Oct-18 09:41 37.617946 -122.388436 140 27ft 0kts
12-Oct-18 09:42 37.617946 -122.388436 140 27ft 0kts
12-Oct-18 09:43 37.617946 -122.388436 140 27ft 0kts
12-Oct-18 09:44 37.617946 -122.388436 140 27ft 0kts
12-Oct-18 09:45 37.617946 -122.388436 140 27ft 0kts
12-Oct-18 09:46 37.617946 -122.388436 140 27ft 0kts
12-Oct-18 09:47 37.617946 -122.388436 140 27ft 0kts
12-Oct-18 09:48 37.617946 -122.388436 140 27ft 0kts
12-Oct-18 09:49 37.617946 -122.388436 140 27ft 0kts
12-Oct-18 09:50 37.617946 -122.388436 140 27ft 0kts
12-Oct-18 09:51 37.617946 -122.388436 140 27ft 0kts
12-Oct-18 09:52 37.617946 -122.388436 140 27ft 0kts
12-Oct-18 09:53 37.617946 -122.388436 140 27ft 0kts
12-Oct-18 09:54 37.617946 -122.388436 140 27ft 0kts
12-Oct-18 09:55 37.617946 -122.388436 140 27ft 0kts
12-Oct-18 09:56 37.617946 -122.388436 140 27ft 0kts
12-Oct-18 09:57 37.617946 -122.388436 140 27ft 0kts
12-Oct-18 09:58 37.617946 -122.388436 140 27ft 0kts
12-Oct-18 09:59 37.617946 -122.388436 140 27ft 0kts
12-Oct-18 10:00 37.617946 -122.388436 140 27ft 0kts
12-Oct-18 10:01 37.617946 -122.388436 140 27ft 0kts
12-Oct-18 10:02 37.617946 -122.388436 140 27ft 0kts
12-Oct-18 10:03 37.617946 -122.388436 140 27ft 0kts
12-Oct-18 10:04 37.617946 -122.388436 140 27ft 0kts
12-Oct-18 10:05 37.617946 -122.388436 140 27ft 0kts
12-Oct-18 10:06 37.617946 -122.388436 140 27ft 0kts
12-Oct-18 10:07 37.617946 -122.388436 140 27ft 0kts
12-Oct-18 10:08 37.617946 -122.388436 140 27ft 0kts
12-Oct-18 10:09 37.617946 -122.388436 140 27ft 0kts
12-Oct-18 10:10 37.617946 -122.388436 140 27ft 0kts
12-Oct-18 10:11 37.617946 -122.388436 140 27ft 0kts
12-Oct-18 10:12 37.617946 -122.388436 140 27ft 0kts
12-Oct-18 10:13 37.617946 -122.388436 140 27ft 0kts
12-Oct-18 10:14 37.617946 -122.388436 140 27ft 0kts
12-Oct-18 10:15 37.617946 -122.388436 140 27ft 0kts
12-Oct-18 10:16 37.617946 -122.388436 140 27ft 0kts
12-Oct-18 10:17 37.617946 -122.388436 140 27ft 0kts
12-Oct-18 10:18 37.617946 -122.388436 140 27ft 0kts
12-Oct-18 10:19 37.617946 -122.388436 140 27ft 0kts
12-Oct-18 10:20 37.617946 -122.388436 140 27ft 0kts
12-Oct-18 10:21 37.617946 -122.388436 140 27ft 0kts
12-Oct-18 10:22 37.617946 -122.388436 140 27ft 0kts
12-Oct-18 10:23 37.617946 -122.388436 140 27ft 0kts
12-Oct-18 10:24 37.617985 -122.388477 140 27ft 2kts
12-Oct-18 10:25 37.618292 -122.388981 105 27ft 2kts
12-Oct-18 10:26 37.618609 -122.389026 209 27ft 1kts
12-Oct-18 10:27 37.619120 -122.389088 117 27ft 1kts
12-Oct-18 10:28 37.619140 -122.389136 117 27ft 0kts
12-Oct-18 10:29 37.619140 -122.389136 117 27ft 0kts
12-Oct-18 10:30 37.619414 -122.389829 302 27ft 7kts
12-Oct-18 10:31 37.620110 -122.391465 298 27ft 0kts
12-Oct-18 10:32 37.620403 -122.392050 321 27ft 8kts
12-Oct-18 10:33 37.622313 -122.390855 70 27ft 5kts
12-Oct-18 10:34 37.622129 -122.387935 118 27ft 11kts
12-Oct-18 10:35 37.620651 -122.384388 117 27ft 11kts
12-Oct-18 10:36 37.619075 -122.380597 118 27ft 12kts
12-Oct-18 10:37 37.615903 -122.380133 211 27ft 13kts
12-Oct-18 10:38 37.612785 -122.382196 205 27ft 12kts
12-Oct-18 10:39 37.609461 -122.384619 208 27ft 11kts
12-Oct-18 10:40 37.608502 -122.383861 117 27ft 0kts
12-Oct-18 10:41 37.608465 -122.383770 117 27ft 0kts
12-Oct-18 10:42 37.608464 -122.383770 117 27ft 0kts
12-Oct-18 10:43 37.610298 -122.381322 27 27ft 58kts
12-Oct-18 10:44 37.638836 -122.363397 16 966ft 160kts
12-Oct-18 10:45 37.682119 -122.361599 1 3221ft 159kts
12-Oct-18 10:46 37.703824 -122.411124 235 4485ft 242kts
12-Oct-18 10:47 37.633765 -122.436528 192 7048ft 280kts
12-Oct-18 10:48 37.556482 -122.457254 191 9979ft 290kts
12-Oct-18 10:49 37.471311 -122.451289 146 11261ft 347kts
12-Oct-18 10:50 37.396667 -122.361714 133 12395ft 391kts
12-Oct-18 10:51 37.317308 -122.266823 133 14531ft 399kts
12-Oct-18 10:52 37.236461 -122.169570 132 16426ft 407kts
12-Oct-18 10:53 37.139628 -122.053598 132 18442ft 417kts
12-Oct-18 10:54 37.068827 -121.969055 132 19746ft 425kts
12-Oct-18 10:55 36.982172 -121.866009 132 21194ft 433kts
12-Oct-18 10:56 36.900457 -121.769050 132 22416ft 441kts
12-Oct-18 10:57 36.810459 -121.662768 132 23628ft 449kts
12-Oct-18 10:58 36.703306 -121.536505 133 24907ft 458kts
12-Oct-18 10:59 36.625625 -121.445298 133 25719ft 464kts
12-Oct-18 11:00 36.530927 -121.334603 133 26730ft 467kts
12-Oct-18 11:01 36.440583 -121.229221 133 27915ft 464kts
12-Oct-18 11:02 36.344229 -121.122302 136 29132ft 463kts
12-Oct-18 11:03 36.244889 -121.020822 136 30284ft 462kts
12-Oct-18 11:04 36.146087 -120.919726 137 31377ft 461kts
12-Oct-18 11:05 36.035241 -120.806830 137 32518ft 460kts
12-Oct-18 11:06 35.953030 -120.723379 139 33201ft 462kts
12-Oct-18 11:07 35.857615 -120.626754 139 34067ft 461kts
12-Oct-18 11:08 35.741644 -120.509860 140 34939ft 461kts
12-Oct-18 11:09 35.658810 -120.426687 140 34957ft 461kts
12-Oct-18 11:10 35.559326 -120.327311 140 34947ft 461kts
12-Oct-18 11:11 35.459666 -120.228095 140 34940ft 461kts
12-Oct-18 11:12 35.359801 -120.128937 141 34905ft 462kts
12-Oct-18 11:13 35.259687 -120.029922 141 34930ft 462kts
12-Oct-18 11:14 35.159251 -119.930935 142 34921ft 463kts
12-Oct-18 11:15 35.068410 -119.835292 136 34954ft 464kts
12-Oct-18 11:16 34.967130 -119.707057 136 34918ft 465kts
12-Oct-18 11:17 34.891889 -119.612906 136 34887ft 466kts
12-Oct-18 11:18 34.801375 -119.499538 136 34905ft 466kts
12-Oct-18 11:19 34.710729 -119.386657 137 34934ft 467kts
12-Oct-18 11:20 34.626181 -119.281531 137 34951ft 467kts
12-Oct-18 11:21 34.539825 -119.174638 137 34967ft 468kts
12-Oct-18 11:22 34.455617 -119.070523 137 34950ft 468kts
12-Oct-18 11:23 34.364499 -118.958442 138 34938ft 467kts
12-Oct-18 11:24 34.273084 -118.846239 138 34861ft 467kts
12-Oct-18 11:25 34.190677 -118.745460 138 34833ft 466kts
12-Oct-18 11:26 34.100081 -118.634956 139 34830ft 467kts
12-Oct-18 11:27 34.010967 -118.526632 139 34908ft 467kts
12-Oct-18 11:28 33.928681 -118.426526 138 34912ft 470kts
12-Oct-18 11:29 33.850442 -118.325061 138 34487ft 469kts
12-Oct-18 11:30 33.761091 -118.209745 138 32671ft 470kts
12-Oct-18 11:31 33.683265 -118.106945 137 30154ft 469kts
12-Oct-18 11:32 33.597099 -117.994585 137 28074ft 443kts
12-Oct-18 11:33 33.510873 -117.887167 139 23574ft 467kts
12-Oct-18 11:34 33.417902 -117.781558 140 20515ft 451kts
12-Oct-18 11:35 33.326724 -117.684161 140 17457ft 428kts
12-Oct-18 11:36 33.239837 -117.591516 140 14728ft 412kts
12-Oct-18 11:37 33.159806 -117.507374 140 13678ft 352kts
12-Oct-18 11:38 33.087899 -117.442324 147 13152ft 300kts
12-Oct-18 11:39 33.034407 -117.397954 146 12262ft 271kts
12-Oct-18 11:40 32.972935 -117.346309 145 10369ft 267kts
12-Oct-18 11:41 32.920107 -117.302062 143 9152ft 260kts
12-Oct-18 11:42 32.860485 -117.252525 143 7998ft 257kts
12-Oct-18 11:43 32.808478 -117.199975 110 6925ft 250kts
12-Oct-18 11:44 32.791525 -117.120603 105 5952ft 239kts
12-Oct-18 11:45 32.775408 -117.049865 104 5123ft 219kts
12-Oct-18 11:46 32.759756 -116.984234 114 4810ft 196kts
12-Oct-18 11:47 32.708555 -116.976721 194 4007ft 209kts
12-Oct-18 11:48 32.681584 -117.024718 295 3191ft 179kts
12-Oct-18 11:49 32.701633 -117.071353 297 2286ft 150kts
12-Oct-18 11:50 32.715038 -117.113170 285 1264ft 131kts
12-Oct-18 11:51 32.724983 -117.154398 285 518ft 129kts
12-Oct-18 11:52 32.734240 -117.192505 287 29ft 60kts
12-Oct-18 11:53 32.735864 -117.202132 197 29ft 11kts
12-Oct-18 11:54 32.734189 -117.203278 267 29ft 1kts
12-Oct-18 11:55 32.734184 -117.203400 266 29ft 0kts
12-Oct-18 11:56 32.734184 -117.203401 266 29ft 0kts

Navigation Log

Ident Type
Flight plan parsing failed, navigation log unavailable